sensor_id;sensor_type;location;lat;lon;timestamp;temperature;humidity
4896;DHT22;2463;49.948;8.472;2022-07-23T00:00:13;23.30;99.90
4896;DHT22;2463;49.948;8.472;2022-07-23T00:02:41;23.20;99.90
4896;DHT22;2463;49.948;8.472;2022-07-23T00:05:08;23.20;99.90
4896;DHT22;2463;49.948;8.472;2022-07-23T00:07:35;23.10;99.90
4896;DHT22;2463;49.948;8.472;2022-07-23T00:10:03;23.00;99.90
4896;DHT22;2463;49.948;8.472;2022-07-23T00:12:29;23.00;99.90
4896;DHT22;2463;49.948;8.472;2022-07-23T00:14:56;23.10;99.90
4896;DHT22;2463;49.948;8.472;2022-07-23T00:17:23;22.90;99.90
4896;DHT22;2463;49.948;8.472;2022-07-23T00:19:50;22.90;99.90
4896;DHT22;2463;49.948;8.472;2022-07-23T00:22:16;22.90;99.90
4896;DHT22;2463;49.948;8.472;2022-07-23T00:24:43;22.90;99.90
4896;DHT22;2463;49.948;8.472;2022-07-23T00:27:30;22.80;99.90
4896;DHT22;2463;49.948;8.472;2022-07-23T00:29:57;22.80;99.90
4896;DHT22;2463;49.948;8.472;2022-07-23T00:32:24;22.70;99.90
4896;DHT22;2463;49.948;8.472;2022-07-23T00:35:10;22.70;99.90
4896;DHT22;2463;49.948;8.472;2022-07-23T00:37:37;22.60;99.90
4896;DHT22;2463;49.948;8.472;2022-07-23T00:40:04;22.60;99.90
4896;DHT22;2463;49.948;8.472;2022-07-23T00:42:32;22.60;99.90
4896;DHT22;2463;49.948;8.472;2022-07-23T00:44:59;22.60;99.90
4896;DHT22;2463;49.948;8.472;2022-07-23T00:47:25;22.70;99.90
4896;DHT22;2463;49.948;8.472;2022-07-23T00:49:52;22.70;99.90
4896;DHT22;2463;49.948;8.472;2022-07-23T00:52:19;22.70;99.90
4896;DHT22;2463;49.948;8.472;2022-07-23T00:54:46;22.60;99.90
4896;DHT22;2463;49.948;8.472;2022-07-23T00:57:13;22.60;99.90
4896;DHT22;2463;49.948;8.472;2022-07-23T00:59:40;22.60;99.90
4896;DHT22;2463;49.948;8.472;2022-07-23T01:02:07;22.60;99.90
4896;DHT22;2463;49.948;8.472;2022-07-23T01:04:34;22.50;99.90
4896;DHT22;2463;49.948;8.472;2022-07-23T01:07:01;22.50;99.90
4896;DHT22;2463;49.948;8.472;2022-07-23T01:09:28;22.40;99.90
4896;DHT22;2463;49.948;8.472;2022-07-23T01:11:57;22.40;99.90
4896;DHT22;2463;49.948;8.472;2022-07-23T01:14:23;22.40;99.90
4896;DHT22;2463;49.948;8.472;2022-07-23T01:16:50;22.60;99.90
4896;DHT22;2463;49.948;8.472;2022-07-23T01:19:18;22.50;99.90
4896;DHT22;2463;49.948;8.472;2022-07-23T01:21:48;22.40;99.90
4896;DHT22;2463;49.948;8.472;2022-07-23T01:24:15;22.40;99.90
4896;DHT22;2463;49.948;8.472;2022-07-23T01:26:46;22.30;99.90
4896;DHT22;2463;49.948;8.472;2022-07-23T01:29:14;22.30;99.90
4896;DHT22;2463;49.948;8.472;2022-07-23T01:31:41;22.20;99.90
4896;DHT22;2463;49.948;8.472;2022-07-23T01:34:09;22.20;99.90
4896;DHT22;2463;49.948;8.472;2022-07-23T01:36:37;22.10;99.90
4896;DHT22;2463;49.948;8.472;2022-07-23T01:39:04;22.20;99.90
4896;DHT22;2463;49.948;8.472;2022-07-23T01:41:32;22.00;99.90
4896;DHT22;2463;49.948;8.472;2022-07-23T01:44:01;21.90;99.90
4896;DHT22;2463;49.948;8.472;2022-07-23T01:46:28;21.90;99.90
4896;DHT22;2463;49.948;8.472;2022-07-23T01:48:54;21.80;99.90
4896;DHT22;2463;49.948;8.472;2022-07-23T01:51:21;21.80;99.90
4896;DHT22;2463;49.948;8.472;2022-07-23T01:53:48;21.80;99.90
4896;DHT22;2463;49.948;8.472;2022-07-23T01:56:15;21.60;99.90
4896;DHT22;2463;49.948;8.472;2022-07-23T01:58:41;21.50;99.90
4896;DHT22;2463;49.948;8.472;2022-07-23T02:01:08;21.50;99.90
4896;DHT22;2463;49.948;8.472;2022-07-23T02:03:35;21.40;99.90
4896;DHT22;2463;49.948;8.472;2022-07-23T02:06:02;21.40;99.90
4896;DHT22;2463;49.948;8.472;2022-07-23T02:08:28;21.40;99.90
4896;DHT22;2463;49.948;8.472;2022-07-23T02:10:55;21.30;99.90
4896;DHT22;2463;49.948;8.472;2022-07-23T02:13:22;21.40;99.90
4896;DHT22;2463;49.948;8.472;2022-07-23T02:15:49;21.40;99.90
4896;DHT22;2463;49.948;8.472;2022-07-23T02:18:15;21.30;99.90
4896;DHT22;2463;49.948;8.472;2022-07-23T02:20:42;21.20;99.90
4896;DHT22;2463;49.948;8.472;2022-07-23T02:23:11;21.20;99.90
4896;DHT22;2463;49.948;8.472;2022-07-23T02:25:38;21.20;99.90
4896;DHT22;2463;49.948;8.472;2022-07-23T02:28:06;21.30;99.90
4896;DHT22;2463;49.948;8.472;2022-07-23T02:30:32;21.20;99.90
4896;DHT22;2463;49.948;8.472;2022-07-23T02:32:59;21.20;99.90
4896;DHT22;2463;49.948;8.472;2022-07-23T02:35:26;21.00;99.90
4896;DHT22;2463;49.948;8.472;2022-07-23T02:37:52;21.00;99.90
4896;DHT22;2463;49.948;8.472;2022-07-23T02:40:19;21.00;99.90
4896;DHT22;2463;49.948;8.472;2022-07-23T02:42:46;21.00;99.90
4896;DHT22;2463;49.948;8.472;2022-07-23T02:45:13;21.00;99.90
4896;DHT22;2463;49.948;8.472;2022-07-23T02:47:40;21.00;99.90
4896;DHT22;2463;49.948;8.472;2022-07-23T02:50:07;20.90;99.90
4896;DHT22;2463;49.948;8.472;2022-07-23T02:52:34;20.90;99.90
4896;DHT22;2463;49.948;8.472;2022-07-23T02:55:01;21.00;99.90
4896;DHT22;2463;49.948;8.472;2022-07-23T02:57:28;21.00;99.90
4896;DHT22;2463;49.948;8.472;2022-07-23T02:59:54;21.40;99.90
4896;DHT22;2463;49.948;8.472;2022-07-23T03:02:21;21.00;99.90
4896;DHT22;2463;49.948;8.472;2022-07-23T03:04:48;21.00;99.90
4896;DHT22;2463;49.948;8.472;2022-07-23T03:07:17;21.00;99.90
4896;DHT22;2463;49.948;8.472;2022-07-23T03:09:44;21.00;99.90
4896;DHT22;2463;49.948;8.472;2022-07-23T03:12:11;21.10;99.90
4896;DHT22;2463;49.948;8.472;2022-07-23T03:14:40;21.00;99.90
4896;DHT22;2463;49.948;8.472;2022-07-23T03:17:08;20.90;99.90
4896;DHT22;2463;49.948;8.472;2022-07-23T03:19:35;20.90;99.90
4896;DHT22;2463;49.948;8.472;2022-07-23T03:22:02;21.00;99.90
4896;DHT22;2463;49.948;8.472;2022-07-23T03:24:28;20.90;99.90
4896;DHT22;2463;49.948;8.472;2022-07-23T03:27:14;20.90;99.90
4896;DHT22;2463;49.948;8.472;2022-07-23T03:29:41;20.80;99.90
4896;DHT22;2463;49.948;8.472;2022-07-23T03:32:07;20.90;99.90
4896;DHT22;2463;49.948;8.472;2022-07-23T03:34:34;20.80;99.90
4896;DHT22;2463;49.948;8.472;2022-07-23T03:37:01;20.90;99.90
4896;DHT22;2463;49.948;8.472;2022-07-23T03:39:28;20.80;99.90
4896;DHT22;2463;49.948;8.472;2022-07-23T03:41:55;20.80;99.90
4896;DHT22;2463;49.948;8.472;2022-07-23T03:44:22;20.90;99.90
4896;DHT22;2463;49.948;8.472;2022-07-23T03:46:49;20.90;99.90
4896;DHT22;2463;49.948;8.472;2022-07-23T03:49:16;20.90;99.90
4896;DHT22;2463;49.948;8.472;2022-07-23T03:51:43;20.80;99.90
4896;DHT22;2463;49.948;8.472;2022-07-23T03:54:09;20.70;99.90
4896;DHT22;2463;49.948;8.472;2022-07-23T03:56:36;20.70;99.90
4896;DHT22;2463;49.948;8.472;2022-07-23T03:59:03;20.70;99.90
4896;DHT22;2463;49.948;8.472;2022-07-23T04:01:31;20.80;99.90
4896;DHT22;2463;49.948;8.472;2022-07-23T04:03:58;20.70;99.90
4896;DHT22;2463;49.948;8.472;2022-07-23T04:06:24;20.70;99.90
4896;DHT22;2463;49.948;8.472;2022-07-23T04:08:51;20.70;99.90
4896;DHT22;2463;49.948;8.472;2022-07-23T04:11:18;20.70;99.90
4896;DHT22;2463;49.948;8.472;2022-07-23T04:13:45;20.70;99.90
4896;DHT22;2463;49.948;8.472;2022-07-23T04:16:12;20.70;99.90
4896;DHT22;2463;49.948;8.472;2022-07-23T04:18:38;20.50;99.90
4896;DHT22;2463;49.948;8.472;2022-07-23T04:21:05;20.50;99.90
4896;DHT22;2463;49.948;8.472;2022-07-23T04:23:32;20.40;99.90
4896;DHT22;2463;49.948;8.472;2022-07-23T04:25:59;20.40;99.90
4896;DHT22;2463;49.948;8.472;2022-07-23T04:28:25;20.50;99.90
4896;DHT22;2463;49.948;8.472;2022-07-23T04:30:52;20.50;99.90
4896;DHT22;2463;49.948;8.472;2022-07-23T04:33:19;20.50;99.90
4896;DHT22;2463;49.948;8.472;2022-07-23T04:35:46;20.50;99.90
4896;DHT22;2463;49.948;8.472;2022-07-23T04:38:12;20.40;99.90
4896;DHT22;2463;49.948;8.472;2022-07-23T04:40:39;20.50;99.90
4896;DHT22;2463;49.948;8.472;2022-07-23T04:43:06;20.60;99.90
4896;DHT22;2463;49.948;8.472;2022-07-23T04:45:32;20.60;99.90
4896;DHT22;2463;49.948;8.472;2022-07-23T04:47:59;20.60;99.90
4896;DHT22;2463;49.948;8.472;2022-07-23T04:50:26;20.70;99.90
4896;DHT22;2463;49.948;8.472;2022-07-23T04:52:53;20.60;99.90
4896;DHT22;2463;49.948;8.472;2022-07-23T04:55:19;20.60;99.90
4896;DHT22;2463;49.948;8.472;2022-07-23T04:57:46;20.60;99.90
4896;DHT22;2463;49.948;8.472;2022-07-23T05:00:13;20.70;99.90
4896;DHT22;2463;49.948;8.472;2022-07-23T05:02:40;20.80;99.90
4896;DHT22;2463;49.948;8.472;2022-07-23T05:05:07;20.90;99.90
4896;DHT22;2463;49.948;8.472;2022-07-23T05:07:34;21.00;99.90
4896;DHT22;2463;49.948;8.472;2022-07-23T05:10:00;21.00;99.90
4896;DHT22;2463;49.948;8.472;2022-07-23T05:12:27;21.00;99.90
4896;DHT22;2463;49.948;8.472;2022-07-23T05:14:54;21.10;99.90
4896;DHT22;2463;49.948;8.472;2022-07-23T05:17:20;21.20;99.90
4896;DHT22;2463;49.948;8.472;2022-07-23T05:19:47;21.20;99.90
4896;DHT22;2463;49.948;8.472;2022-07-23T05:22:14;21.30;99.90
4896;DHT22;2463;49.948;8.472;2022-07-23T05:24:41;21.30;99.90
4896;DHT22;2463;49.948;8.472;2022-07-23T05:27:09;21.30;99.90
4896;DHT22;2463;49.948;8.472;2022-07-23T05:29:36;21.30;99.90
4896;DHT22;2463;49.948;8.472;2022-07-23T05:32:03;21.40;99.90
4896;DHT22;2463;49.948;8.472;2022-07-23T05:34:30;21.50;99.90
4896;DHT22;2463;49.948;8.472;2022-07-23T05:36:56;21.60;99.90
4896;DHT22;2463;49.948;8.472;2022-07-23T05:39:23;21.70;99.90
4896;DHT22;2463;49.948;8.472;2022-07-23T05:41:50;21.70;99.90
4896;DHT22;2463;49.948;8.472;2022-07-23T05:44:17;21.70;99.90
4896;DHT22;2463;49.948;8.472;2022-07-23T05:46:43;21.70;99.90
4896;DHT22;2463;49.948;8.472;2022-07-23T05:49:10;21.80;99.90
4896;DHT22;2463;49.948;8.472;2022-07-23T05:51:37;21.80;99.90
4896;DHT22;2463;49.948;8.472;2022-07-23T05:54:04;21.80;99.90
4896;DHT22;2463;49.948;8.472;2022-07-23T05:56:31;21.90;99.90
4896;DHT22;2463;49.948;8.472;2022-07-23T05:58:57;21.90;99.90
4896;DHT22;2463;49.948;8.472;2022-07-23T06:01:25;22.00;99.90
4896;DHT22;2463;49.948;8.472;2022-07-23T06:03:51;22.10;99.90
4896;DHT22;2463;49.948;8.472;2022-07-23T06:06:18;22.20;99.90
4896;DHT22;2463;49.948;8.472;2022-07-23T06:08:45;22.30;99.90
4896;DHT22;2463;49.948;8.472;2022-07-23T06:11:11;22.40;99.90
4896;DHT22;2463;49.948;8.472;2022-07-23T06:13:38;22.60;99.90
4896;DHT22;2463;49.948;8.472;2022-07-23T06:16:05;22.70;99.90
4896;DHT22;2463;49.948;8.472;2022-07-23T06:18:32;22.80;99.90
4896;DHT22;2463;49.948;8.472;2022-07-23T06:20:58;23.00;99.90
4896;DHT22;2463;49.948;8.472;2022-07-23T06:23:26;23.10;99.90
4896;DHT22;2463;49.948;8.472;2022-07-23T06:25:53;23.20;99.90
4896;DHT22;2463;49.948;8.472;2022-07-23T06:28:20;23.50;99.90
4896;DHT22;2463;49.948;8.472;2022-07-23T06:30:46;23.80;99.90
4896;DHT22;2463;49.948;8.472;2022-07-23T06:33:13;24.30;99.90
4896;DHT22;2463;49.948;8.472;2022-07-23T06:35:40;25.00;99.90
4896;DHT22;2463;49.948;8.472;2022-07-23T06:38:07;26.00;99.90
4896;DHT22;2463;49.948;8.472;2022-07-23T06:40:34;27.00;99.90
4896;DHT22;2463;49.948;8.472;2022-07-23T06:43:01;28.00;99.90
4896;DHT22;2463;49.948;8.472;2022-07-23T06:45:27;28.80;99.90
4896;DHT22;2463;49.948;8.472;2022-07-23T06:47:54;29.80;99.90
4896;DHT22;2463;49.948;8.472;2022-07-23T06:50:21;30.60;99.90
4896;DHT22;2463;49.948;8.472;2022-07-23T06:52:47;31.30;99.90
4896;DHT22;2463;49.948;8.472;2022-07-23T06:55:14;32.00;99.90
4896;DHT22;2463;49.948;8.472;2022-07-23T06:57:41;32.60;99.90
4896;DHT22;2463;49.948;8.472;2022-07-23T07:00:08;33.10;99.90
4896;DHT22;2463;49.948;8.472;2022-07-23T07:02:35;33.60;98.90
4896;DHT22;2463;49.948;8.472;2022-07-23T07:05:03;34.10;98.00
4896;DHT22;2463;49.948;8.472;2022-07-23T07:07:32;34.60;97.10
4896;DHT22;2463;49.948;8.472;2022-07-23T07:09:59;34.90;96.30
4896;DHT22;2463;49.948;8.472;2022-07-23T07:12:25;35.30;95.50
4896;DHT22;2463;49.948;8.472;2022-07-23T07:14:52;35.60;94.50
4896;DHT22;2463;49.948;8.472;2022-07-23T07:17:20;35.60;93.90
4896;DHT22;2463;49.948;8.472;2022-07-23T07:19:46;35.00;93.20
4896;DHT22;2463;49.948;8.472;2022-07-23T07:22:13;34.30;93.20
4896;DHT22;2463;49.948;8.472;2022-07-23T07:24:40;33.40;94.10
4896;DHT22;2463;49.948;8.472;2022-07-23T07:27:07;32.50;95.00
4896;DHT22;2463;49.948;8.472;2022-07-23T07:29:33;31.80;95.60
4896;DHT22;2463;49.948;8.472;2022-07-23T07:32:00;31.10;97.50
4896;DHT22;2463;49.948;8.472;2022-07-23T07:34:27;30.80;98.40
4896;DHT22;2463;49.948;8.472;2022-07-23T07:36:53;30.50;98.00
4896;DHT22;2463;49.948;8.472;2022-07-23T07:39:20;30.60;99.00
4896;DHT22;2463;49.948;8.472;2022-07-23T07:41:47;30.30;99.10
4896;DHT22;2463;49.948;8.472;2022-07-23T07:44:13;30.20;99.80
4896;DHT22;2463;49.948;8.472;2022-07-23T07:46:40;30.20;99.70
4896;DHT22;2463;49.948;8.472;2022-07-23T07:49:07;30.10;99.90
4896;DHT22;2463;49.948;8.472;2022-07-23T07:51:41;30.10;99.90
4896;DHT22;2463;49.948;8.472;2022-07-23T07:54:07;30.10;99.90
4896;DHT22;2463;49.948;8.472;2022-07-23T07:56:34;30.10;97.50
4896;DHT22;2463;49.948;8.472;2022-07-23T07:59:01;30.20;99.90
4896;DHT22;2463;49.948;8.472;2022-07-23T08:01:28;30.30;98.70
4896;DHT22;2463;49.948;8.472;2022-07-23T08:03:55;30.30;99.10
4896;DHT22;2463;49.948;8.472;2022-07-23T08:06:22;30.20;96.70
4896;DHT22;2463;49.948;8.472;2022-07-23T08:08:49;29.90;96.90
4896;DHT22;2463;49.948;8.472;2022-07-23T08:11:16;29.80;97.90
4896;DHT22;2463;49.948;8.472;2022-07-23T08:13:42;29.60;98.60
4896;DHT22;2463;49.948;8.472;2022-07-23T08:16:11;29.50;99.00
4896;DHT22;2463;49.948;8.472;2022-07-23T08:18:38;29.40;98.40
4896;DHT22;2463;49.948;8.472;2022-07-23T08:21:05;29.40;97.70
4896;DHT22;2463;49.948;8.472;2022-07-23T08:23:32;29.60;97.80
4896;DHT22;2463;49.948;8.472;2022-07-23T08:25:59;29.70;99.20
4896;DHT22;2463;49.948;8.472;2022-07-23T08:28:26;29.80;98.20
4896;DHT22;2463;49.948;8.472;2022-07-23T08:30:53;30.00;99.10
4896;DHT22;2463;49.948;8.472;2022-07-23T08:33:20;30.30;99.10
4896;DHT22;2463;49.948;8.472;2022-07-23T08:35:59;30.50;98.40
4896;DHT22;2463;49.948;8.472;2022-07-23T08:38:26;30.60;95.90
4896;DHT22;2463;49.948;8.472;2022-07-23T08:40:54;30.60;95.20
4896;DHT22;2463;49.948;8.472;2022-07-23T08:43:29;30.70;97.00
4896;DHT22;2463;49.948;8.472;2022-07-23T08:45:58;30.80;96.30
4896;DHT22;2463;49.948;8.472;2022-07-23T08:48:29;31.10;96.50
4896;DHT22;2463;49.948;8.472;2022-07-23T08:50:58;31.30;95.90
4896;DHT22;2463;49.948;8.472;2022-07-23T08:53:28;31.30;94.20
4896;DHT22;2463;49.948;8.472;2022-07-23T08:56:02;31.10;94.40
4896;DHT22;2463;49.948;8.472;2022-07-23T08:58:30;31.00;96.10
4896;DHT22;2463;49.948;8.472;2022-07-23T09:00:58;31.10;96.10
4896;DHT22;2463;49.948;8.472;2022-07-23T09:03:29;31.10;96.80
4896;DHT22;2463;49.948;8.472;2022-07-23T09:05:58;31.40;96.50
4896;DHT22;2463;49.948;8.472;2022-07-23T09:08:35;31.70;96.30
4896;DHT22;2463;49.948;8.472;2022-07-23T09:11:04;32.00;96.40
4896;DHT22;2463;49.948;8.472;2022-07-23T09:13:42;32.20;96.20
4896;DHT22;2463;49.948;8.472;2022-07-23T09:16:24;32.40;96.20
4896;DHT22;2463;49.948;8.472;2022-07-23T09:18:53;32.70;95.90
4896;DHT22;2463;49.948;8.472;2022-07-23T09:24:11;33.10;95.30
4896;DHT22;2463;49.948;8.472;2022-07-23T09:29:22;33.20;92.60
4896;DHT22;2463;49.948;8.472;2022-07-23T09:36:56;33.50;93.70
4896;DHT22;2463;49.948;8.472;2022-07-23T09:39:30;33.60;94.00
4896;DHT22;2463;49.948;8.472;2022-07-23T09:42:12;33.70;92.80
4896;DHT22;2463;49.948;8.472;2022-07-23T09:44:42;33.70;92.50
4896;DHT22;2463;49.948;8.472;2022-07-23T09:47:10;33.40;91.30
4896;DHT22;2463;49.948;8.472;2022-07-23T09:49:36;33.10;93.00
4896;DHT22;2463;49.948;8.472;2022-07-23T09:52:04;32.80;91.90
4896;DHT22;2463;49.948;8.472;2022-07-23T09:57:13;32.70;94.20
4896;DHT22;2463;49.948;8.472;2022-07-23T09:59:43;33.10;93.90
4896;DHT22;2463;49.948;8.472;2022-07-23T10:02:11;33.40;93.60
4896;DHT22;2463;49.948;8.472;2022-07-23T10:04:42;33.40;91.80
4896;DHT22;2463;49.948;8.472;2022-07-23T10:07:10;32.90;91.30
4896;DHT22;2463;49.948;8.472;2022-07-23T10:09:41;33.10;92.10
4896;DHT22;2463;49.948;8.472;2022-07-23T10:12:13;33.40;92.20
4896;DHT22;2463;49.948;8.472;2022-07-23T10:15:00;33.40;92.00
4896;DHT22;2463;49.948;8.472;2022-07-23T10:17:28;33.80;91.70
4896;DHT22;2463;49.948;8.472;2022-07-23T10:19:55;33.90;90.80
4896;DHT22;2463;49.948;8.472;2022-07-23T10:22:28;33.60;90.90
4896;DHT22;2463;49.948;8.472;2022-07-23T10:27:44;33.80;92.30
4896;DHT22;2463;49.948;8.472;2022-07-23T10:38:20;33.60;90.60
4896;DHT22;2463;49.948;8.472;2022-07-23T10:41:03;33.70;91.80
4896;DHT22;2463;49.948;8.472;2022-07-23T10:43:30;33.60;91.40
4896;DHT22;2463;49.948;8.472;2022-07-23T10:46:25;33.70;90.90
4896;DHT22;2463;49.948;8.472;2022-07-23T10:49:31;34.10;89.50
4896;DHT22;2463;49.948;8.472;2022-07-23T10:57:09;35.20;82.20
4896;DHT22;2463;49.948;8.472;2022-07-23T11:02:51;35.30;88.60
4896;DHT22;2463;49.948;8.472;2022-07-23T11:05:20;35.70;86.10
4896;DHT22;2463;49.948;8.472;2022-07-23T11:10:46;35.90;80.60
4896;DHT22;2463;49.948;8.472;2022-07-23T11:24:02;35.60;78.80
4896;DHT22;2463;49.948;8.472;2022-07-23T11:34:33;35.40;73.40
4896;DHT22;2463;49.948;8.472;2022-07-23T11:37:03;35.10;78.00
4896;DHT22;2463;49.948;8.472;2022-07-23T11:39:31;35.60;76.90
4896;DHT22;2463;49.948;8.472;2022-07-23T11:41:58;35.90;76.50
4896;DHT22;2463;49.948;8.472;2022-07-23T11:44:27;36.20;73.90
4896;DHT22;2463;49.948;8.472;2022-07-23T11:47:01;36.20;75.30
4896;DHT22;2463;49.948;8.472;2022-07-23T11:49:31;36.50;73.90
4896;DHT22;2463;49.948;8.472;2022-07-23T11:52:08;36.70;71.50
4896;DHT22;2463;49.948;8.472;2022-07-23T11:54:37;37.00;73.70
4896;DHT22;2463;49.948;8.472;2022-07-23T11:57:13;37.30;72.00
4896;DHT22;2463;49.948;8.472;2022-07-23T11:59:40;37.30;72.10
4896;DHT22;2463;49.948;8.472;2022-07-23T12:02:07;37.30;71.10
4896;DHT22;2463;49.948;8.472;2022-07-23T12:04:45;37.30;68.50
4896;DHT22;2463;49.948;8.472;2022-07-23T12:07:35;37.40;67.70
4896;DHT22;2463;49.948;8.472;2022-07-23T12:12:51;36.90;70.90
4896;DHT22;2463;49.948;8.472;2022-07-23T12:15:27;37.00;71.20
4896;DHT22;2463;49.948;8.472;2022-07-23T12:17:55;36.80;68.20
4896;DHT22;2463;49.948;8.472;2022-07-23T12:20:30;36.40;69.80
4896;DHT22;2463;49.948;8.472;2022-07-23T12:23:01;36.10;71.40
4896;DHT22;2463;49.948;8.472;2022-07-23T12:25:35;36.10;71.40
4896;DHT22;2463;49.948;8.472;2022-07-23T12:28:08;36.40;71.80
4896;DHT22;2463;49.948;8.472;2022-07-23T12:30:41;36.50;68.50
4896;DHT22;2463;49.948;8.472;2022-07-23T12:33:12;36.10;71.60
4896;DHT22;2463;49.948;8.472;2022-07-23T12:35:41;36.00;69.80
4896;DHT22;2463;49.948;8.472;2022-07-23T12:38:14;35.60;70.90
4896;DHT22;2463;49.948;8.472;2022-07-23T12:40:53;35.40;70.50
4896;DHT22;2463;49.948;8.472;2022-07-23T12:43:29;35.20;72.30
4896;DHT22;2463;49.948;8.472;2022-07-23T12:46:03;35.00;70.10
4896;DHT22;2463;49.948;8.472;2022-07-23T12:48:38;34.80;69.70
4896;DHT22;2463;49.948;8.472;2022-07-23T12:51:13;34.50;71.30
4896;DHT22;2463;49.948;8.472;2022-07-23T12:53:56;34.10;73.10
4896;DHT22;2463;49.948;8.472;2022-07-23T12:56:31;33.90;72.20
4896;DHT22;2463;49.948;8.472;2022-07-23T12:59:06;33.80;75.10
4896;DHT22;2463;49.948;8.472;2022-07-23T13:01:39;33.90;72.20
4896;DHT22;2463;49.948;8.472;2022-07-23T13:04:09;33.90;73.80
4896;DHT22;2463;49.948;8.472;2022-07-23T13:06:47;34.00;74.40
4896;DHT22;2463;49.948;8.472;2022-07-23T13:09:20;33.90;74.00
4896;DHT22;2463;49.948;8.472;2022-07-23T13:11:49;33.80;72.50
4896;DHT22;2463;49.948;8.472;2022-07-23T13:14:17;33.80;73.00
4896;DHT22;2463;49.948;8.472;2022-07-23T13:16:47;33.70;73.30
4896;DHT22;2463;49.948;8.472;2022-07-23T13:19:15;33.70;75.20
4896;DHT22;2463;49.948;8.472;2022-07-23T13:21:44;33.80;73.70
4896;DHT22;2463;49.948;8.472;2022-07-23T13:24:12;34.00;75.70
4896;DHT22;2463;49.948;8.472;2022-07-23T13:26:39;34.20;73.20
4896;DHT22;2463;49.948;8.472;2022-07-23T13:29:07;34.50;72.90
4896;DHT22;2463;49.948;8.472;2022-07-23T13:31:37;34.80;74.80
4896;DHT22;2463;49.948;8.472;2022-07-23T13:34:05;35.10;72.10
4896;DHT22;2463;49.948;8.472;2022-07-23T13:36:52;35.50;70.10
4896;DHT22;2463;49.948;8.472;2022-07-23T13:39:20;35.60;67.30
4896;DHT22;2463;49.948;8.472;2022-07-23T13:41:46;35.60;69.20
4896;DHT22;2463;49.948;8.472;2022-07-23T13:44:17;35.90;72.00
4896;DHT22;2463;49.948;8.472;2022-07-23T13:46:46;36.10;69.10
4896;DHT22;2463;49.948;8.472;2022-07-23T13:49:13;36.20;67.60
4896;DHT22;2463;49.948;8.472;2022-07-23T13:51:41;36.10;67.80
4896;DHT22;2463;49.948;8.472;2022-07-23T13:54:08;36.00;68.60
4896;DHT22;2463;49.948;8.472;2022-07-23T13:56:35;35.70;68.90
4896;DHT22;2463;49.948;8.472;2022-07-23T13:59:02;35.40;71.50
4896;DHT22;2463;49.948;8.472;2022-07-23T14:01:32;35.00;69.70
4896;DHT22;2463;49.948;8.472;2022-07-23T14:04:11;34.70;70.50
4896;DHT22;2463;49.948;8.472;2022-07-23T14:06:38;34.70;71.40
4896;DHT22;2463;49.948;8.472;2022-07-23T14:09:05;34.60;71.10
4896;DHT22;2463;49.948;8.472;2022-07-23T14:11:34;34.50;69.20
4896;DHT22;2463;49.948;8.472;2022-07-23T14:14:01;34.30;70.80
4896;DHT22;2463;49.948;8.472;2022-07-23T14:16:28;34.20;70.30
4896;DHT22;2463;49.948;8.472;2022-07-23T14:18:55;34.00;70.30
4896;DHT22;2463;49.948;8.472;2022-07-23T14:21:22;33.90;71.00
4896;DHT22;2463;49.948;8.472;2022-07-23T14:23:48;33.80;70.60
4896;DHT22;2463;49.948;8.472;2022-07-23T14:26:15;33.60;67.80
4896;DHT22;2463;49.948;8.472;2022-07-23T14:28:43;33.50;69.30
4896;DHT22;2463;49.948;8.472;2022-07-23T14:31:09;33.70;71.90
4896;DHT22;2463;49.948;8.472;2022-07-23T14:33:47;33.90;73.30
4896;DHT22;2463;49.948;8.472;2022-07-23T14:36:13;34.10;72.30
4896;DHT22;2463;49.948;8.472;2022-07-23T14:38:41;34.10;72.30
4896;DHT22;2463;49.948;8.472;2022-07-23T14:41:08;34.20;74.20
4896;DHT22;2463;49.948;8.472;2022-07-23T14:43:36;34.20;72.70
4896;DHT22;2463;49.948;8.472;2022-07-23T14:46:04;34.30;70.50
4896;DHT22;2463;49.948;8.472;2022-07-23T14:48:31;34.30;70.50
4896;DHT22;2463;49.948;8.472;2022-07-23T14:50:58;34.40;70.30
4896;DHT22;2463;49.948;8.472;2022-07-23T14:53:25;34.40;69.30
4896;DHT22;2463;49.948;8.472;2022-07-23T14:55:52;34.20;70.50
4896;DHT22;2463;49.948;8.472;2022-07-23T14:58:20;33.90;70.30
4896;DHT22;2463;49.948;8.472;2022-07-23T15:00:47;33.70;73.50
4896;DHT22;2463;49.948;8.472;2022-07-23T15:03:14;33.50;72.30
4896;DHT22;2463;49.948;8.472;2022-07-23T15:05:41;33.30;73.20
4896;DHT22;2463;49.948;8.472;2022-07-23T15:08:08;33.10;74.50
4896;DHT22;2463;49.948;8.472;2022-07-23T15:10:35;32.90;74.40
4896;DHT22;2463;49.948;8.472;2022-07-23T15:13:03;32.70;74.50
4896;DHT22;2463;49.948;8.472;2022-07-23T15:15:30;32.50;74.80
4896;DHT22;2463;49.948;8.472;2022-07-23T15:17:57;32.40;74.50
4896;DHT22;2463;49.948;8.472;2022-07-23T15:20:24;32.30;76.10
4896;DHT22;2463;49.948;8.472;2022-07-23T15:23:07;32.20;71.90
4896;DHT22;2463;49.948;8.472;2022-07-23T15:25:35;32.00;76.00
4896;DHT22;2463;49.948;8.472;2022-07-23T15:28:03;31.90;73.90
4896;DHT22;2463;49.948;8.472;2022-07-23T15:30:33;31.70;75.50
4896;DHT22;2463;49.948;8.472;2022-07-23T15:33:03;31.70;76.70
4896;DHT22;2463;49.948;8.472;2022-07-23T15:35:31;31.80;75.80
4896;DHT22;2463;49.948;8.472;2022-07-23T15:37:58;32.00;76.40
4896;DHT22;2463;49.948;8.472;2022-07-23T15:40:25;32.10;76.30
4896;DHT22;2463;49.948;8.472;2022-07-23T15:42:52;32.00;75.20
4896;DHT22;2463;49.948;8.472;2022-07-23T15:45:19;32.00;73.80
4896;DHT22;2463;49.948;8.472;2022-07-23T15:47:47;32.10;71.00
4896;DHT22;2463;49.948;8.472;2022-07-23T15:50:15;32.20;72.30
4896;DHT22;2463;49.948;8.472;2022-07-23T15:52:42;32.20;72.00
4896;DHT22;2463;49.948;8.472;2022-07-23T15:55:11;32.20;70.20
4896;DHT22;2463;49.948;8.472;2022-07-23T15:57:42;32.40;69.40
4896;DHT22;2463;49.948;8.472;2022-07-23T16:00:10;32.50;69.50
4896;DHT22;2463;49.948;8.472;2022-07-23T16:02:37;32.50;70.00
4896;DHT22;2463;49.948;8.472;2022-07-23T16:05:06;32.50;71.30
4896;DHT22;2463;49.948;8.472;2022-07-23T16:07:33;32.40;75.80
4896;DHT22;2463;49.948;8.472;2022-07-23T16:10:05;32.30;73.00
4896;DHT22;2463;49.948;8.472;2022-07-23T16:12:32;32.20;72.10
4896;DHT22;2463;49.948;8.472;2022-07-23T16:14:58;32.20;70.30
4896;DHT22;2463;49.948;8.472;2022-07-23T16:17:32;32.10;70.00
4896;DHT22;2463;49.948;8.472;2022-07-23T16:19:59;32.10;70.80
4896;DHT22;2463;49.948;8.472;2022-07-23T16:22:25;32.10;71.80
4896;DHT22;2463;49.948;8.472;2022-07-23T16:24:52;32.20;72.30
4896;DHT22;2463;49.948;8.472;2022-07-23T16:27:19;32.10;70.80
4896;DHT22;2463;49.948;8.472;2022-07-23T16:29:46;32.00;72.80
4896;DHT22;2463;49.948;8.472;2022-07-23T16:32:12;32.00;72.00
4896;DHT22;2463;49.948;8.472;2022-07-23T16:34:39;32.00;72.90
4896;DHT22;2463;49.948;8.472;2022-07-23T16:37:08;31.90;71.60
4896;DHT22;2463;49.948;8.472;2022-07-23T16:39:36;31.80;70.90
4896;DHT22;2463;49.948;8.472;2022-07-23T16:42:03;31.70;73.70
4896;DHT22;2463;49.948;8.472;2022-07-23T16:44:30;31.70;72.40
4896;DHT22;2463;49.948;8.472;2022-07-23T16:46:57;31.70;72.50
4896;DHT22;2463;49.948;8.472;2022-07-23T16:49:24;31.70;73.40
4896;DHT22;2463;49.948;8.472;2022-07-23T16:51:50;31.60;73.10
4896;DHT22;2463;49.948;8.472;2022-07-23T16:54:17;31.50;73.90
4896;DHT22;2463;49.948;8.472;2022-07-23T16:56:47;31.40;74.00
4896;DHT22;2463;49.948;8.472;2022-07-23T16:59:14;31.30;74.20
4896;DHT22;2463;49.948;8.472;2022-07-23T17:01:41;31.10;74.30
4896;DHT22;2463;49.948;8.472;2022-07-23T17:04:08;31.00;73.60
4896;DHT22;2463;49.948;8.472;2022-07-23T17:06:35;31.00;75.80